sensor_id;sensor_type;location;lat;lon;timestamp;temperature;humidity
5796;DHT22;2924;51.458;7.046;2023-03-23T00:00:05;10.30;99.90
5796;DHT22;2924;51.458;7.046;2023-03-23T00:02:31;10.40;99.90
5796;DHT22;2924;51.458;7.046;2023-03-23T00:05:01;10.40;99.90
5796;DHT22;2924;51.458;7.046;2023-03-23T00:07:28;10.40;99.90
5796;DHT22;2924;51.458;7.046;2023-03-23T00:09:55;10.50;99.90
5796;DHT22;2924;51.458;7.046;2023-03-23T00:12:23;10.50;99.90
5796;DHT22;2924;51.458;7.046;2023-03-23T00:14:55;10.60;99.90
5796;DHT22;2924;51.458;7.046;2023-03-23T00:17:21;10.60;99.90
5796;DHT22;2924;51.458;7.046;2023-03-23T00:19:48;10.70;99.90
5796;DHT22;2924;51.458;7.046;2023-03-23T00:22:15;10.70;99.90
5796;DHT22;2924;51.458;7.046;2023-03-23T00:24:42;10.80;99.90
5796;DHT22;2924;51.458;7.046;2023-03-23T00:27:09;10.90;99.90
5796;DHT22;2924;51.458;7.046;2023-03-23T00:29:38;10.90;99.90
5796;DHT22;2924;51.458;7.046;2023-03-23T00:32:04;10.90;99.90
5796;DHT22;2924;51.458;7.046;2023-03-23T00:34:29;10.90;99.90
5796;DHT22;2924;51.458;7.046;2023-03-23T00:36:57;11.00;99.90
5796;DHT22;2924;51.458;7.046;2023-03-23T00:39:24;11.10;99.90
5796;DHT22;2924;51.458;7.046;2023-03-23T00:41:50;11.10;99.90
5796;DHT22;2924;51.458;7.046;2023-03-23T00:44:16;11.10;99.90
5796;DHT22;2924;51.458;7.046;2023-03-23T00:46:46;11.10;99.90
5796;DHT22;2924;51.458;7.046;2023-03-23T00:49:18;11.20;99.90
5796;DHT22;2924;51.458;7.046;2023-03-23T00:51:45;11.20;99.90
5796;DHT22;2924;51.458;7.046;2023-03-23T00:54:11;11.40;99.90
5796;DHT22;2924;51.458;7.046;2023-03-23T00:56:38;11.30;99.90
5796;DHT22;2924;51.458;7.046;2023-03-23T00:59:05;11.30;99.90
5796;DHT22;2924;51.458;7.046;2023-03-23T01:01:31;11.30;99.90
5796;DHT22;2924;51.458;7.046;2023-03-23T01:03:58;11.30;99.90
5796;DHT22;2924;51.458;7.046;2023-03-23T01:06:27;11.30;99.90
5796;DHT22;2924;51.458;7.046;2023-03-23T01:08:53;11.40;99.90
5796;DHT22;2924;51.458;7.046;2023-03-23T01:11:20;11.40;99.90
5796;DHT22;2924;51.458;7.046;2023-03-23T01:13:46;11.40;99.90
5796;DHT22;2924;51.458;7.046;2023-03-23T01:16:12;11.40;99.90
5796;DHT22;2924;51.458;7.046;2023-03-23T01:18:38;11.30;99.90
5796;DHT22;2924;51.458;7.046;2023-03-23T01:21:10;11.40;99.90
5796;DHT22;2924;51.458;7.046;2023-03-23T01:23:37;11.30;99.90
5796;DHT22;2924;51.458;7.046;2023-03-23T01:26:10;11.40;99.90
5796;DHT22;2924;51.458;7.046;2023-03-23T01:28:36;11.30;99.90
5796;DHT22;2924;51.458;7.046;2023-03-23T01:31:04;11.30;99.90
5796;DHT22;2924;51.458;7.046;2023-03-23T01:33:30;11.30;99.90
5796;DHT22;2924;51.458;7.046;2023-03-23T01:35:56;11.40;99.90
5796;DHT22;2924;51.458;7.046;2023-03-23T01:38:22;11.30;99.90
5796;DHT22;2924;51.458;7.046;2023-03-23T01:40:47;11.30;99.90
5796;DHT22;2924;51.458;7.046;2023-03-23T01:43:14;11.40;99.90
5796;DHT22;2924;51.458;7.046;2023-03-23T01:45:40;11.40;99.90
5796;DHT22;2924;51.458;7.046;2023-03-23T01:48:16;11.40;99.90
5796;DHT22;2924;51.458;7.046;2023-03-23T01:50:52;11.40;99.90
5796;DHT22;2924;51.458;7.046;2023-03-23T01:53:19;11.30;99.90
5796;DHT22;2924;51.458;7.046;2023-03-23T01:55:47;11.30;99.90
5796;DHT22;2924;51.458;7.046;2023-03-23T01:58:17;11.20;99.90
5796;DHT22;2924;51.458;7.046;2023-03-23T02:00:44;11.20;99.90
5796;DHT22;2924;51.458;7.046;2023-03-23T02:03:10;11.20;99.90
5796;DHT22;2924;51.458;7.046;2023-03-23T02:05:40;11.20;99.90
5796;DHT22;2924;51.458;7.046;2023-03-23T02:08:07;11.20;99.90
5796;DHT22;2924;51.458;7.046;2023-03-23T02:10:34;11.20;99.90
5796;DHT22;2924;51.458;7.046;2023-03-23T02:13:02;11.20;99.90
5796;DHT22;2924;51.458;7.046;2023-03-23T02:15:38;11.20;99.90
5796;DHT22;2924;51.458;7.046;2023-03-23T02:21:44;11.30;99.90
5796;DHT22;2924;51.458;7.046;2023-03-23T02:30:43;11.30;99.90
5796;DHT22;2924;51.458;7.046;2023-03-23T02:36:56;11.10;99.90
5796;DHT22;2924;51.458;7.046;2023-03-23T02:44:27;11.00;99.90
5796;DHT22;2924;51.458;7.046;2023-03-23T02:46:56;10.90;99.90
5796;DHT22;2924;51.458;7.046;2023-03-23T02:49:24;10.90;99.90
5796;DHT22;2924;51.458;7.046;2023-03-23T02:51:51;10.90;99.90
5796;DHT22;2924;51.458;7.046;2023-03-23T02:54:18;10.90;99.90
5796;DHT22;2924;51.458;7.046;2023-03-23T02:56:46;10.90;99.90
5796;DHT22;2924;51.458;7.046;2023-03-23T02:59:12;10.90;99.90
5796;DHT22;2924;51.458;7.046;2023-03-23T03:04:06;10.90;99.90
5796;DHT22;2924;51.458;7.046;2023-03-23T03:06:43;10.90;99.90
5796;DHT22;2924;51.458;7.046;2023-03-23T03:12:13;10.90;99.90
5796;DHT22;2924;51.458;7.046;2023-03-23T03:14:49;10.90;99.90
5796;DHT22;2924;51.458;7.046;2023-03-23T03:17:24;10.90;99.90
5796;DHT22;2924;51.458;7.046;2023-03-23T03:19:54;10.80;99.90
5796;DHT22;2924;51.458;7.046;2023-03-23T03:22:23;10.80;99.90
5796;DHT22;2924;51.458;7.046;2023-03-23T03:24:56;10.90;99.90
5796;DHT22;2924;51.458;7.046;2023-03-23T03:27:23;10.90;99.90
5796;DHT22;2924;51.458;7.046;2023-03-23T03:29:54;10.90;99.90
5796;DHT22;2924;51.458;7.046;2023-03-23T03:32:25;10.90;99.90
5796;DHT22;2924;51.458;7.046;2023-03-23T03:34:58;11.00;99.90
5796;DHT22;2924;51.458;7.046;2023-03-23T03:37:24;11.00;99.90
5796;DHT22;2924;51.458;7.046;2023-03-23T03:39:49;11.00;99.90
5796;DHT22;2924;51.458;7.046;2023-03-23T03:42:16;11.10;99.90
5796;DHT22;2924;51.458;7.046;2023-03-23T03:44:42;11.10;99.90
5796;DHT22;2924;51.458;7.046;2023-03-23T03:47:07;11.10;99.90
5796;DHT22;2924;51.458;7.046;2023-03-23T03:49:33;11.20;99.90
5796;DHT22;2924;51.458;7.046;2023-03-23T03:51:59;11.20;99.90
5796;DHT22;2924;51.458;7.046;2023-03-23T03:54:24;11.20;99.90
5796;DHT22;2924;51.458;7.046;2023-03-23T03:56:50;11.20;99.90
5796;DHT22;2924;51.458;7.046;2023-03-23T03:59:17;11.20;99.90
5796;DHT22;2924;51.458;7.046;2023-03-23T04:01:42;11.30;99.90
5796;DHT22;2924;51.458;7.046;2023-03-23T04:04:08;11.30;99.90
5796;DHT22;2924;51.458;7.046;2023-03-23T04:06:34;11.30;99.90
5796;DHT22;2924;51.458;7.046;2023-03-23T04:09:02;11.40;99.90
5796;DHT22;2924;51.458;7.046;2023-03-23T04:11:31;11.30;99.90
5796;DHT22;2924;51.458;7.046;2023-03-23T04:13:56;11.30;99.90
5796;DHT22;2924;51.458;7.046;2023-03-23T04:16:22;11.30;99.90
5796;DHT22;2924;51.458;7.046;2023-03-23T04:18:47;11.30;99.90
5796;DHT22;2924;51.458;7.046;2023-03-23T04:21:13;11.30;99.90
5796;DHT22;2924;51.458;7.046;2023-03-23T04:23:39;11.30;99.90
5796;DHT22;2924;51.458;7.046;2023-03-23T04:26:05;11.30;99.90
5796;DHT22;2924;51.458;7.046;2023-03-23T04:28:31;11.20;99.90
5796;DHT22;2924;51.458;7.046;2023-03-23T04:30:59;11.20;99.90
5796;DHT22;2924;51.458;7.046;2023-03-23T04:33:27;11.30;99.90
5796;DHT22;2924;51.458;7.046;2023-03-23T04:35:54;11.30;99.90
5796;DHT22;2924;51.458;7.046;2023-03-23T04:38:21;11.30;99.90
5796;DHT22;2924;51.458;7.046;2023-03-23T04:40:50;11.30;99.90
5796;DHT22;2924;51.458;7.046;2023-03-23T04:43:17;11.30;99.90
5796;DHT22;2924;51.458;7.046;2023-03-23T04:45:47;11.30;99.90
5796;DHT22;2924;51.458;7.046;2023-03-23T04:48:12;11.40;99.90
5796;DHT22;2924;51.458;7.046;2023-03-23T04:50:39;11.40;99.90
5796;DHT22;2924;51.458;7.046;2023-03-23T04:53:05;11.40;99.90
5796;DHT22;2924;51.458;7.046;2023-03-23T04:55:33;11.50;99.90
5796;DHT22;2924;51.458;7.046;2023-03-23T04:58:03;11.50;99.90
5796;DHT22;2924;51.458;7.046;2023-03-23T05:00:28;11.50;99.90
5796;DHT22;2924;51.458;7.046;2023-03-23T05:02:54;11.50;99.90
5796;DHT22;2924;51.458;7.046;2023-03-23T05:05:21;11.50;99.90
5796;DHT22;2924;51.458;7.046;2023-03-23T05:07:48;11.50;99.90
5796;DHT22;2924;51.458;7.046;2023-03-23T05:10:15;11.60;99.90
5796;DHT22;2924;51.458;7.046;2023-03-23T05:12:42;11.60;99.90
5796;DHT22;2924;51.458;7.046;2023-03-23T05:15:08;11.70;99.90
5796;DHT22;2924;51.458;7.046;2023-03-23T05:17:34;11.70;99.90
5796;DHT22;2924;51.458;7.046;2023-03-23T05:20:02;11.70;99.90
5796;DHT22;2924;51.458;7.046;2023-03-23T05:22:29;11.70;99.90
5796;DHT22;2924;51.458;7.046;2023-03-23T05:24:58;11.70;99.90
5796;DHT22;2924;51.458;7.046;2023-03-23T05:27:23;11.70;99.90
5796;DHT22;2924;51.458;7.046;2023-03-23T05:29:49;11.70;99.90
5796;DHT22;2924;51.458;7.046;2023-03-23T05:32:18;11.70;99.90
5796;DHT22;2924;51.458;7.046;2023-03-23T05:34:46;11.70;99.90
5796;DHT22;2924;51.458;7.046;2023-03-23T05:37:12;11.70;99.90
5796;DHT22;2924;51.458;7.046;2023-03-23T05:39:39;11.70;99.90
5796;DHT22;2924;51.458;7.046;2023-03-23T05:42:05;11.70;99.90
5796;DHT22;2924;51.458;7.046;2023-03-23T05:44:32;11.70;99.90
5796;DHT22;2924;51.458;7.046;2023-03-23T05:46:58;11.70;99.90
5796;DHT22;2924;51.458;7.046;2023-03-23T05:49:24;11.70;99.90
5796;DHT22;2924;51.458;7.046;2023-03-23T05:51:51;11.70;99.90
5796;DHT22;2924;51.458;7.046;2023-03-23T05:54:17;11.70;99.90
5796;DHT22;2924;51.458;7.046;2023-03-23T05:56:43;11.60;99.90
5796;DHT22;2924;51.458;7.046;2023-03-23T05:59:09;11.70;99.90
5796;DHT22;2924;51.458;7.046;2023-03-23T06:01:36;11.70;99.90
5796;DHT22;2924;51.458;7.046;2023-03-23T06:04:02;11.70;99.90
5796;DHT22;2924;51.458;7.046;2023-03-23T06:06:29;11.70;99.90
5796;DHT22;2924;51.458;7.046;2023-03-23T06:08:56;11.70;99.90
5796;DHT22;2924;51.458;7.046;2023-03-23T06:11:22;11.80;99.90
5796;DHT22;2924;51.458;7.046;2023-03-23T06:13:48;11.80;99.90
5796;DHT22;2924;51.458;7.046;2023-03-23T06:16:14;11.80;99.90
5796;DHT22;2924;51.458;7.046;2023-03-23T06:18:40;11.80;99.90
5796;DHT22;2924;51.458;7.046;2023-03-23T06:21:06;11.90;99.90
5796;DHT22;2924;51.458;7.046;2023-03-23T06:23:32;11.90;99.90
5796;DHT22;2924;51.458;7.046;2023-03-23T06:26:00;11.90;99.90
5796;DHT22;2924;51.458;7.046;2023-03-23T06:28:26;11.90;99.90
5796;DHT22;2924;51.458;7.046;2023-03-23T06:30:52;11.90;99.90
5796;DHT22;2924;51.458;7.046;2023-03-23T06:33:18;11.90;99.90
5796;DHT22;2924;51.458;7.046;2023-03-23T06:35:44;12.00;99.90
5796;DHT22;2924;51.458;7.046;2023-03-23T06:38:10;12.10;99.90
5796;DHT22;2924;51.458;7.046;2023-03-23T06:40:36;12.10;99.90
5796;DHT22;2924;51.458;7.046;2023-03-23T06:43:02;12.10;99.90
5796;DHT22;2924;51.458;7.046;2023-03-23T06:45:29;12.10;99.90
5796;DHT22;2924;51.458;7.046;2023-03-23T06:47:55;12.10;99.90
5796;DHT22;2924;51.458;7.046;2023-03-23T06:50:20;12.20;99.90
5796;DHT22;2924;51.458;7.046;2023-03-23T06:52:47;12.20;99.90
5796;DHT22;2924;51.458;7.046;2023-03-23T06:55:14;12.20;99.90
5796;DHT22;2924;51.458;7.046;2023-03-23T06:57:40;12.20;99.90
5796;DHT22;2924;51.458;7.046;2023-03-23T07:00:07;12.30;99.90
5796;DHT22;2924;51.458;7.046;2023-03-23T07:02:34;12.30;99.90
5796;DHT22;2924;51.458;7.046;2023-03-23T07:05:01;12.30;99.90
5796;DHT22;2924;51.458;7.046;2023-03-23T07:07:28;12.40;99.90
5796;DHT22;2924;51.458;7.046;2023-03-23T07:09:54;12.40;99.90
5796;DHT22;2924;51.458;7.046;2023-03-23T07:12:20;12.50;99.90
5796;DHT22;2924;51.458;7.046;2023-03-23T07:14:47;12.50;99.90
5796;DHT22;2924;51.458;7.046;2023-03-23T07:17:12;12.50;99.90
5796;DHT22;2924;51.458;7.046;2023-03-23T07:19:38;12.40;99.90
5796;DHT22;2924;51.458;7.046;2023-03-23T07:22:06;12.40;99.90
5796;DHT22;2924;51.458;7.046;2023-03-23T07:24:33;12.40;99.90
5796;DHT22;2924;51.458;7.046;2023-03-23T07:27:00;12.50;99.90
5796;DHT22;2924;51.458;7.046;2023-03-23T07:29:25;12.50;99.90
5796;DHT22;2924;51.458;7.046;2023-03-23T07:31:52;12.50;99.90
5796;DHT22;2924;51.458;7.046;2023-03-23T07:34:18;12.60;99.90
5796;DHT22;2924;51.458;7.046;2023-03-23T07:36:44;12.60;99.90
5796;DHT22;2924;51.458;7.046;2023-03-23T07:39:11;12.70;99.90
5796;DHT22;2924;51.458;7.046;2023-03-23T07:41:37;12.70;99.90
5796;DHT22;2924;51.458;7.046;2023-03-23T07:44:03;12.60;99.90
5796;DHT22;2924;51.458;7.046;2023-03-23T07:46:29;12.60;99.90
5796;DHT22;2924;51.458;7.046;2023-03-23T07:48:56;12.70;99.90
5796;DHT22;2924;51.458;7.046;2023-03-23T07:51:22;12.70;99.90
5796;DHT22;2924;51.458;7.046;2023-03-23T07:53:48;12.70;99.90
5796;DHT22;2924;51.458;7.046;2023-03-23T07:56:15;12.70;99.90
5796;DHT22;2924;51.458;7.046;2023-03-23T07:58:44;12.70;99.90
5796;DHT22;2924;51.458;7.046;2023-03-23T08:01:10;12.70;99.90
5796;DHT22;2924;51.458;7.046;2023-03-23T08:03:36;12.70;99.90
5796;DHT22;2924;51.458;7.046;2023-03-23T08:06:02;12.70;99.90
5796;DHT22;2924;51.458;7.046;2023-03-23T08:08:28;12.80;99.90
5796;DHT22;2924;51.458;7.046;2023-03-23T08:10:54;12.80;99.90
5796;DHT22;2924;51.458;7.046;2023-03-23T08:13:19;12.80;99.90
5796;DHT22;2924;51.458;7.046;2023-03-23T08:15:45;12.80;99.90
5796;DHT22;2924;51.458;7.046;2023-03-23T08:18:11;12.90;99.90
5796;DHT22;2924;51.458;7.046;2023-03-23T08:20:37;12.90;99.90
5796;DHT22;2924;51.458;7.046;2023-03-23T08:23:03;12.90;99.90
5796;DHT22;2924;51.458;7.046;2023-03-23T08:25:30;13.00;99.90
5796;DHT22;2924;51.458;7.046;2023-03-23T08:27:59;13.00;99.90
5796;DHT22;2924;51.458;7.046;2023-03-23T08:30:27;13.00;99.90
5796;DHT22;2924;51.458;7.046;2023-03-23T08:32:55;13.10;99.90
5796;DHT22;2924;51.458;7.046;2023-03-23T08:35:22;13.20;99.90
5796;DHT22;2924;51.458;7.046;2023-03-23T08:37:47;13.30;99.90
5796;DHT22;2924;51.458;7.046;2023-03-23T08:40:17;13.40;99.90
5796;DHT22;2924;51.458;7.046;2023-03-23T08:42:45;13.50;99.90
5796;DHT22;2924;51.458;7.046;2023-03-23T08:45:13;13.60;99.90
5796;DHT22;2924;51.458;7.046;2023-03-23T08:47:40;13.60;99.90
5796;DHT22;2924;51.458;7.046;2023-03-23T08:50:09;13.70;99.90
5796;DHT22;2924;51.458;7.046;2023-03-23T08:52:36;13.70;99.90
5796;DHT22;2924;51.458;7.046;2023-03-23T08:55:03;13.60;99.90
5796;DHT22;2924;51.458;7.046;2023-03-23T08:57:29;13.70;99.90
5796;DHT22;2924;51.458;7.046;2023-03-23T08:59:54;13.80;99.90
5796;DHT22;2924;51.458;7.046;2023-03-23T09:02:25;13.80;99.90
5796;DHT22;2924;51.458;7.046;2023-03-23T09:04:52;13.80;99.90
5796;DHT22;2924;51.458;7.046;2023-03-23T09:07:18;13.80;99.90
5796;DHT22;2924;51.458;7.046;2023-03-23T09:09:44;13.80;99.90
5796;DHT22;2924;51.458;7.046;2023-03-23T09:12:10;13.90;99.90
5796;DHT22;2924;51.458;7.046;2023-03-23T09:14:37;13.70;99.90
5796;DHT22;2924;51.458;7.046;2023-03-23T09:17:03;13.60;99.90
5796;DHT22;2924;51.458;7.046;2023-03-23T09:19:30;13.60;99.90
5796;DHT22;2924;51.458;7.046;2023-03-23T09:21:56;13.60;99.90
5796;DHT22;2924;51.458;7.046;2023-03-23T09:24:22;13.50;99.90
5796;DHT22;2924;51.458;7.046;2023-03-23T09:26:48;13.30;99.90
5796;DHT22;2924;51.458;7.046;2023-03-23T09:29:13;13.30;99.90
5796;DHT22;2924;51.458;7.046;2023-03-23T09:31:39;13.30;99.90
5796;DHT22;2924;51.458;7.046;2023-03-23T09:34:08;13.20;99.90
5796;DHT22;2924;51.458;7.046;2023-03-23T09:36:36;13.30;99.90
5796;DHT22;2924;51.458;7.046;2023-03-23T09:39:02;13.30;99.90
5796;DHT22;2924;51.458;7.046;2023-03-23T09:47:02;13.30;99.90
5796;DHT22;2924;51.458;7.046;2023-03-23T09:49:59;13.20;99.90
5796;DHT22;2924;51.458;7.046;2023-03-23T09:55:03;13.10;99.90
5796;DHT22;2924;51.458;7.046;2023-03-23T10:00:41;13.00;99.90
5796;DHT22;2924;51.458;7.046;2023-03-23T10:03:18;12.70;99.90
5796;DHT22;2924;51.458;7.046;2023-03-23T10:05:48;12.40;99.90
5796;DHT22;2924;51.458;7.046;2023-03-23T10:08:17;11.80;99.90
5796;DHT22;2924;51.458;7.046;2023-03-23T10:10:52;11.10;99.90
5796;DHT22;2924;51.458;7.046;2023-03-23T10:16:03;10.30;99.90
5796;DHT22;2924;51.458;7.046;2023-03-23T10:21:21;10.30;99.90
5796;DHT22;2924;51.458;7.046;2023-03-23T10:24:02;10.30;99.90
5796;DHT22;2924;51.458;7.046;2023-03-23T10:29:32;10.30;99.90
5796;DHT22;2924;51.458;7.046;2023-03-23T10:32:16;10.20;99.90
5796;DHT22;2924;51.458;7.046;2023-03-23T10:37:16;10.00;99.90
5796;DHT22;2924;51.458;7.046;2023-03-23T10:39:57;10.00;99.90
5796;DHT22;2924;51.458;7.046;2023-03-23T10:42:32;10.00;99.90
5796;DHT22;2924;51.458;7.046;2023-03-23T10:45:00;10.20;99.90
5796;DHT22;2924;51.458;7.046;2023-03-23T10:47:37;10.30;99.90
5796;DHT22;2924;51.458;7.046;2023-03-23T10:50:06;10.50;99.90
5796;DHT22;2924;51.458;7.046;2023-03-23T10:52:39;10.50;99.90
5796;DHT22;2924;51.458;7.046;2023-03-23T10:55:09;10.40;99.90
5796;DHT22;2924;51.458;7.046;2023-03-23T10:57:37;10.50;99.90
5796;DHT22;2924;51.458;7.046;2023-03-23T11:00:20;10.70;99.90
5796;DHT22;2924;51.458;7.046;2023-03-23T11:03:20;10.90;99.90
5796;DHT22;2924;51.458;7.046;2023-03-23T11:05:53;10.90;99.90
5796;DHT22;2924;51.458;7.046;2023-03-23T11:08:22;10.60;99.90
5796;DHT22;2924;51.458;7.046;2023-03-23T11:10:55;10.30;99.90
5796;DHT22;2924;51.458;7.046;2023-03-23T11:13:27;10.10;99.90
5796;DHT22;2924;51.458;7.046;2023-03-23T11:15:54;10.00;99.90
5796;DHT22;2924;51.458;7.046;2023-03-23T11:18:22;9.80;99.90
5796;DHT22;2924;51.458;7.046;2023-03-23T11:20:54;9.80;99.90
5796;DHT22;2924;51.458;7.046;2023-03-23T11:23:30;9.70;99.90
5796;DHT22;2924;51.458;7.046;2023-03-23T11:26:10;9.60;99.90
5796;DHT22;2924;51.458;7.046;2023-03-23T11:28:42;9.60;99.90
5796;DHT22;2924;51.458;7.046;2023-03-23T11:31:08;9.60;99.90
5796;DHT22;2924;51.458;7.046;2023-03-23T11:33:57;9.70;99.90
5796;DHT22;2924;51.458;7.046;2023-03-23T11:36:33;9.70;99.90
5796;DHT22;2924;51.458;7.046;2023-03-23T11:38:59;9.70;99.90
5796;DHT22;2924;51.458;7.046;2023-03-23T11:41:32;9.80;99.90
5796;DHT22;2924;51.458;7.046;2023-03-23T11:44:03;9.90;99.90
5796;DHT22;2924;51.458;7.046;2023-03-23T11:47:02;9.80;99.90
5796;DHT22;2924;51.458;7.046;2023-03-23T11:52:52;9.70;99.90
5796;DHT22;2924;51.458;7.046;2023-03-23T11:55:25;9.80;99.90
5796;DHT22;2924;51.458;7.046;2023-03-23T11:57:52;9.80;99.90
5796;DHT22;2924;51.458;7.046;2023-03-23T12:00:21;10.00;99.90
5796;DHT22;2924;51.458;7.046;2023-03-23T12:03:11;10.40;99.90
5796;DHT22;2924;51.458;7.046;2023-03-23T12:05:53;10.60;99.90
5796;DHT22;2924;51.458;7.046;2023-03-23T12:08:38;10.50;99.90
5796;DHT22;2924;51.458;7.046;2023-03-23T12:11:36;10.40;99.90
5796;DHT22;2924;51.458;7.046;2023-03-23T12:16:47;10.20;99.90
5796;DHT22;2924;51.458;7.046;2023-03-23T12:27:49;10.10;99.90
5796;DHT22;2924;51.458;7.046;2023-03-23T12:35:48;10.10;99.90
5796;DHT22;2924;51.458;7.046;2023-03-23T12:38:47;10.10;99.90
5796;DHT22;2924;51.458;7.046;2023-03-23T12:41:30;10.20;99.90
5796;DHT22;2924;51.458;7.046;2023-03-23T12:44:09;10.30;99.90
5796;DHT22;2924;51.458;7.046;2023-03-23T12:51:58;10.50;99.90
5796;DHT22;2924;51.458;7.046;2023-03-23T12:54:46;10.70;99.90
5796;DHT22;2924;51.458;7.046;2023-03-23T13:05:42;11.40;99.90
5796;DHT22;2924;51.458;7.046;2023-03-23T13:08:19;11.30;99.90
5796;DHT22;2924;51.458;7.046;2023-03-23T13:10:49;11.30;99.90
5796;DHT22;2924;51.458;7.046;2023-03-23T13:13:51;11.30;99.90
5796;DHT22;2924;51.458;7.046;2023-03-23T13:22:41;11.30;99.90
5796;DHT22;2924;51.458;7.046;2023-03-23T13:25:15;11.20;99.90
5796;DHT22;2924;51.458;7.046;2023-03-23T13:27:42;11.30;99.90
5796;DHT22;2924;51.458;7.046;2023-03-23T13:30:21;11.50;99.90
5796;DHT22;2924;51.458;7.046;2023-03-23T13:32:48;11.70;99.90
5796;DHT22;2924;51.458;7.046;2023-03-23T13:35:17;11.90;99.90
5796;DHT22;2924;51.458;7.046;2023-03-23T13:37:49;11.90;99.90
5796;DHT22;2924;51.458;7.046;2023-03-23T13:40:33;11.80;99.90
5796;DHT22;2924;51.458;7.046;2023-03-23T13:42:59;11.70;99.90
5796;DHT22;2924;51.458;7.046;2023-03-23T13:50:57;11.80;99.90
5796;DHT22;2924;51.458;7.046;2023-03-23T13:56:20;12.00;99.90
5796;DHT22;2924;51.458;7.046;2023-03-23T13:59:04;12.10;99.90
5796;DHT22;2924;51.458;7.046;2023-03-23T14:01:38;12.20;99.90
5796;DHT22;2924;51.458;7.046;2023-03-23T14:04:14;12.30;99.90
5796;DHT22;2924;51.458;7.046;2023-03-23T14:06:42;12.40;99.90
5796;DHT22;2924;51.458;7.046;2023-03-23T14:09:15;12.50;99.90
5796;DHT22;2924;51.458;7.046;2023-03-23T14:11:54;12.60;99.90
5796;DHT22;2924;51.458;7.046;2023-03-23T14:14:26;12.60;99.90
5796;DHT22;2924;51.458;7.046;2023-03-23T14:17:06;12.60;99.90
5796;DHT22;2924;51.458;7.046;2023-03-23T14:19:31;12.60;99.90
5796;DHT22;2924;51.458;7.046;2023-03-23T14:21:59;12.60;99.90
5796;DHT22;2924;51.458;7.046;2023-03-23T14:24:32;12.60;99.90
5796;DHT22;2924;51.458;7.046;2023-03-23T14:27:09;12.60;99.90
5796;DHT22;2924;51.458;7.046;2023-03-23T14:29:35;12.70;99.90
5796;DHT22;2924;51.458;7.046;2023-03-23T14:32:01;12.80;99.90
5796;DHT22;2924;51.458;7.046;2023-03-23T14:34:30;12.80;99.90
5796;DHT22;2924;51.458;7.046;2023-03-23T14:36:57;12.80;99.90
5796;DHT22;2924;51.458;7.046;2023-03-23T14:39:29;13.00;99.90
5796;DHT22;2924;51.458;7.046;2023-03-23T14:42:07;13.20;99.90
5796;DHT22;2924;51.458;7.046;2023-03-23T14:44:40;13.30;99.90
5796;DHT22;2924;51.458;7.046;2023-03-23T14:47:10;13.40;99.90
5796;DHT22;2924;51.458;7.046;2023-03-23T14:49:41;13.40;99.90
5796;DHT22;2924;51.458;7.046;2023-03-23T14:52:15;13.40;99.90
5796;DHT22;2924;51.458;7.046;2023-03-23T14:54:42;13.30;99.90
5796;DHT22;2924;51.458;7.046;2023-03-23T14:57:25;13.20;99.90
5796;DHT22;2924;51.458;7.046;2023-03-23T14:59:52;13.20;99.90
5796;DHT22;2924;51.458;7.046;2023-03-23T15:02:22;13.30;99.90
5796;DHT22;2924;51.458;7.046;2023-03-23T15:04:51;13.30;99.90
5796;DHT22;2924;51.458;7.046;2023-03-23T15:07:20;13.30;99.90
5796;DHT22;2924;51.458;7.046;2023-03-23T15:09:46;13.30;99.90
5796;DHT22;2924;51.458;7.046;2023-03-23T15:12:24;13.30;99.90
5796;DHT22;2924;51.458;7.046;2023-03-23T15:14:54;13.30;99.90
5796;DHT22;2924;51.458;7.046;2023-03-23T15:17:23;13.40;99.90
5796;DHT22;2924;51.458;7.046;2023-03-23T15:19:50;13.40;99.90
5796;DHT22;2924;51.458;7.046;2023-03-23T15:24:52;13.60;99.90
5796;DHT22;2924;51.458;7.046;2023-03-23T15:27:33;13.90;99.90
5796;DHT22;2924;51.458;7.046;2023-03-23T15:30:11;14.10;99.90
5796;DHT22;2924;51.458;7.046;2023-03-23T15:32:40;14.20;99.90
5796;DHT22;2924;51.458;7.046;2023-03-23T15:35:21;14.20;99.90
5796;DHT22;2924;51.458;7.046;2023-03-23T15:38:00;14.20;99.90
5796;DHT22;2924;51.458;7.046;2023-03-23T15:40:27;14.20;99.90
5796;DHT22;2924;51.458;7.046;2023-03-23T15:43:18;14.20;99.90
5796;DHT22;2924;51.458;7.046;2023-03-23T15:45:55;14.10;99.90
5796;DHT22;2924;51.458;7.046;2023-03-23T15:48:22;14.10;99.90
5796;DHT22;2924;51.458;7.046;2023-03-23T15:50:49;14.20;99.90
5796;DHT22;2924;51.458;7.046;2023-03-23T15:53:26;14.40;99.90
5796;DHT22;2924;51.458;7.046;2023-03-23T15:55:52;14.50;99.90
5796;DHT22;2924;51.458;7.046;2023-03-23T15:58:17;14.50;99.90
5796;DHT22;2924;51.458;7.046;2023-03-23T16:00:43;14.60;99.90
5796;DHT22;2924;51.458;7.046;2023-03-23T16:03:20;14.60;99.90
5796;DHT22;2924;51.458;7.046;2023-03-23T16:05:49;14.60;99.90
5796;DHT22;2924;51.458;7.046;2023-03-23T16:11:37;14.70;99.90
5796;DHT22;2924;51.458;7.046;2023-03-23T16:14:02;14.70;99.90
5796;DHT22;2924;51.458;7.046;2023-03-23T16:16:31;14.70;99.90
5796;DHT22;2924;51.458;7.046;2023-03-23T16:18:58;14.50;99.90
5796;DHT22;2924;51.458;7.046;2023-03-23T16:21:23;14.30;99.90
5796;DHT22;2924;51.458;7.046;2023-03-23T16:23:49;14.30;99.90
5796;DHT22;2924;51.458;7.046;2023-03-23T16:26:15;14.20;99.90
5796;DHT22;2924;51.458;7.046;2023-03-23T16:28:42;14.20;99.90
5796;DHT22;2924;51.458;7.046;2023-03-23T16:31:07;14.10;99.90
5796;DHT22;2924;51.458;7.046;2023-03-23T16:33:33;14.10;99.90
5796;DHT22;2924;51.458;7.046;2023-03-23T16:35:59;14.10;99.90
5796;DHT22;2924;51.458;7.046;2023-03-23T16:38:24;14.00;99.90
5796;DHT22;2924;51.458;7.046;2023-03-23T16:40:50;13.90;99.90
5796;DHT22;2924;51.458;7.046;2023-03-23T16:43:16;13.90;99.90
5796;DHT22;2924;51.458;7.046;2023-03-23T16:45:43;13.80;99.90
5796;DHT22;2924;51.458;7.046;2023-03-23T16:48:10;13.70;99.90
5796;DHT22;2924;51.458;7.046;2023-03-23T16:50:36;13.50;99.90
5796;DHT22;2924;51.458;7.046;2023-03-23T16:53:03;13.40;99.90
5796;DHT22;2924;51.458;7.046;2023-03-23T16:55:29;13.30;99.90
5796;DHT22;2924;51.458;7.046;2023-03-23T16:57:56;13.20;99.90
5796;DHT22;2924;51.458;7.046;2023-03-23T17:00:22;13.10;99.90
5796;DHT22;2924;51.458;7.046;2023-03-23T17:02:50;13.10;99.90
5796;DHT22;2924;51.458;7.046;2023-03-23T17:11:43;13.10;99.90
5796;DHT22;2924;51.458;7.046;2023-03-23T17:14:08;13.00;99.90
5796;DHT22;2924;51.458;7.046;2023-03-23T17:16:34;13.00;99.90
5796;DHT22;2924;51.458;7.046;2023-03-23T17:18:59;13.00;99.90
5796;DHT22;2924;51.458;7.046;2023-03-23T17:21:25;13.00;99.90
5796;DHT22;2924;51.458;7.046;2023-03-23T17:23:51;12.90;99.90
5796;DHT22;2924;51.458;7.046;2023-03-23T17:26:17;12.80;99.90
5796;DHT22;2924;51.458;7.046;2023-03-23T17:28:42;12.80;99.90
5796;DHT22;2924;51.458;7.046;2023-03-23T17:31:08;12.80;99.90
5796;DHT22;2924;51.458;7.046;2023-03-23T17:33:33;12.70;99.90
5796;DHT22;2924;51.458;7.046;2023-03-23T17:35:59;12.80;99.90
5796;DHT22;2924;51.458;7.046;2023-03-23T17:38:25;12.70;99.90
5796;DHT22;2924;51.458;7.046;2023-03-23T17:40:58;12.80;99.90
5796;DHT22;2924;51.458;7.046;2023-03-23T17:43:25;12.80;99.90
5796;DHT22;2924;51.458;7.046;2023-03-23T17:45:50;12.80;99.90
5796;DHT22;2924;51.458;7.046;2023-03-23T17:48:16;12.90;99.90
5796;DHT22;2924;51.458;7.046;2023-03-23T17:50:45;12.80;99.90
5796;DHT22;2924;51.458;7.046;2023-03-23T17:53:10;12.80;99.90
5796;DHT22;2924;51.458;7.046;2023-03-23T17:55:36;12.80;99.90
5796;DHT22;2924;51.458;7.046;2023-03-23T17:58:01;12.80;99.90
5796;DHT22;2924;51.458;7.046;2023-03-23T18:00:27;12.70;99.90